createdAt,value
2018-12-16T00:00:16.056Z,1017.93
2018-12-16T00:01:16.159Z,1017.96
2018-12-16T00:02:16.200Z,1017.91
2018-12-16T00:03:16.287Z,1017.91
2018-12-16T00:04:16.323Z,1017.93
2018-12-16T00:05:16.472Z,1017.93
2018-12-16T00:06:16.707Z,1017.91
2018-12-16T00:07:16.536Z,1017.93
2018-12-16T00:08:16.627Z,1017.93
2018-12-16T00:09:16.676Z,1017.87
2018-12-16T00:10:16.729Z,1017.90
2018-12-16T00:11:16.852Z,1017.80
2018-12-16T00:12:16.898Z,1017.86
2018-12-16T00:13:17.002Z,1017.84
2018-12-16T00:14:17.018Z,1017.86
2018-12-16T00:15:17.101Z,1017.82
2018-12-16T00:16:17.190Z,1017.78
2018-12-16T00:17:17.230Z,1017.71
2018-12-16T00:18:17.327Z,1017.76
2018-12-16T00:19:17.404Z,1017.74
2018-12-16T00:20:17.472Z,1017.72
2018-12-16T00:21:18.485Z,1017.74
2018-12-16T00:22:17.635Z,1017.79
2018-12-16T00:23:17.684Z,1017.74
2018-12-16T00:24:17.777Z,1017.72
2018-12-16T00:25:17.836Z,1017.76
2018-12-16T00:26:17.932Z,1017.77
2018-12-16T00:27:17.975Z,1017.75
2018-12-16T00:28:18.031Z,1017.78
2018-12-16T00:29:18.153Z,1017.79
2018-12-16T00:30:18.305Z,1017.76
2018-12-16T00:31:18.326Z,1017.79
2018-12-16T00:32:18.325Z,1017.73
2018-12-16T00:33:18.408Z,1017.71
2018-12-16T00:34:18.512Z,1017.73
2018-12-16T00:35:18.557Z,1017.73
2018-12-16T00:36:18.678Z,1017.67
2018-12-16T00:37:18.700Z,1017.64
2018-12-16T00:38:22.879Z,1017.69
2018-12-16T00:39:18.854Z,1017.57
2018-12-16T00:40:18.907Z,1017.61
2018-12-16T00:41:19.067Z,1017.59
2018-12-16T00:42:19.046Z,1017.60
2018-12-16T00:43:19.130Z,1017.53
2018-12-16T00:44:19.201Z,1017.54
2018-12-16T00:45:19.269Z,1017.57
2018-12-16T00:46:19.410Z,1017.53
2018-12-16T00:47:19.391Z,1017.52
2018-12-16T00:48:19.477Z,1017.52
2018-12-16T00:49:19.540Z,1017.49
2018-12-16T00:50:19.610Z,1017.54
2018-12-16T00:51:19.706Z,1017.46
2018-12-16T00:52:19.789Z,1017.45
2018-12-16T00:53:19.859Z,1017.44
2018-12-16T00:54:19.945Z,1017.42
2018-12-16T00:55:19.928Z,1017.47
2018-12-16T00:56:20.040Z,1017.36
2018-12-16T00:57:20.098Z,1017.40
2018-12-16T00:58:20.206Z,1017.39
2018-12-16T00:59:20.260Z,1017.41
2018-12-16T01:00:20.372Z,1017.37
2018-12-16T01:01:20.381Z,1017.42
2018-12-16T01:02:20.478Z,1017.38
2018-12-16T01:03:20.608Z,1017.45
2018-12-16T01:04:20.606Z,1017.37
2018-12-16T01:05:20.656Z,1017.34
2018-12-16T01:06:20.736Z,1017.26
2018-12-16T01:07:20.807Z,1017.27
2018-12-16T01:08:20.881Z,1017.25
2018-12-16T01:09:20.967Z,1017.25
2018-12-16T01:10:21.026Z,1017.24
2018-12-16T01:11:21.160Z,1017.20
2018-12-16T01:12:21.190Z,1017.28
2018-12-16T01:13:21.253Z,1017.26
2018-12-16T01:14:21.310Z,1017.26
2018-12-16T01:15:21.360Z,1017.21
2018-12-16T01:16:21.452Z,1017.20
2018-12-16T01:17:21.493Z,1017.16
2018-12-16T01:18:21.596Z,1017.17
2018-12-16T01:19:21.755Z,1017.15
2018-12-16T01:20:21.696Z,1017.18
2018-12-16T01:21:21.776Z,1017.18
2018-12-16T01:22:21.842Z,1017.13
2018-12-16T01:23:21.919Z,1017.13
2018-12-16T01:24:22.019Z,1017.13
2018-12-16T01:25:22.072Z,1017.11
2018-12-16T01:26:22.140Z,1017.08
2018-12-16T01:27:22.309Z,1017.05
2018-12-16T01:28:22.291Z,1017.06
2018-12-16T01:29:22.374Z,1017.05
2018-12-16T01:30:22.426Z,1016.99
2018-12-16T01:31:22.493Z,1017.00
2018-12-16T01:32:22.576Z,1017.03
2018-12-16T01:33:22.635Z,1017.00
2018-12-16T01:34:22.702Z,1017.00
2018-12-16T01:35:22.828Z,1016.94
2018-12-16T01:36:22.868Z,1016.93
2018-12-16T01:37:22.960Z,1016.93
2018-12-16T01:38:23.001Z,1016.95
2018-12-16T01:39:23.065Z,1016.94
2018-12-16T01:40:23.124Z,1016.85
2018-12-16T01:41:23.211Z,1016.86
2018-12-16T01:42:23.307Z,1016.85
2018-12-16T01:43:23.361Z,1016.85
2018-12-16T01:44:23.532Z,1016.85
2018-12-16T01:45:23.488Z,1016.78
2018-12-16T01:46:23.813Z,1016.81
2018-12-16T01:47:23.667Z,1016.78
2018-12-16T01:48:23.707Z,1016.75
2018-12-16T01:49:23.796Z,1016.73
2018-12-16T01:50:23.853Z,1016.69
2018-12-16T01:51:23.896Z,1016.73
2018-12-16T01:52:24.128Z,1016.70
2018-12-16T01:53:24.054Z,1016.66
2018-12-16T01:54:24.142Z,1016.66
2018-12-16T01:55:24.185Z,1016.64
2018-12-16T01:56:24.270Z,1016.55
2018-12-16T01:57:24.380Z,1016.62
2018-12-16T01:58:24.426Z,1016.68
2018-12-16T01:59:24.513Z,1016.58
2018-12-16T02:00:24.620Z,1016.60
2018-12-16T02:01:24.601Z,1016.53
2018-12-16T02:02:24.717Z,1016.52
2018-12-16T02:03:24.760Z,1016.49
2018-12-16T02:04:24.847Z,1016.52
2018-12-16T02:05:24.901Z,1016.47
2018-12-16T02:06:24.968Z,1016.44
2018-12-16T02:07:25.050Z,1016.43
2018-12-16T02:08:26.173Z,1016.38
2018-12-16T02:09:25.177Z,1016.31
2018-12-16T02:10:25.232Z,1016.31
2018-12-16T02:11:25.304Z,1016.29
2018-12-16T02:12:25.398Z,1016.29
2018-12-16T02:13:25.431Z,1016.28
2018-12-16T02:14:25.542Z,1016.29
2018-12-16T02:15:25.604Z,1016.29
2018-12-16T02:16:25.693Z,1016.30
2018-12-16T02:17:25.840Z,1016.31
2018-12-16T02:18:25.795Z,1016.27
2018-12-16T02:19:25.896Z,1016.30
2018-12-16T02:20:25.967Z,1016.25
2018-12-16T02:21:26.036Z,1016.23
2018-12-16T02:22:26.133Z,1016.25
2018-12-16T02:23:26.181Z,1016.29
2018-12-16T02:24:26.237Z,1016.19
2018-12-16T02:25:26.399Z,1016.17
2018-12-16T02:26:26.380Z,1016.18
2018-12-16T02:27:26.468Z,1016.17
2018-12-16T02:28:26.527Z,1016.16
2018-12-16T02:29:26.570Z,1016.19
2018-12-16T02:30:26.671Z,1016.14
2018-12-16T02:31:26.753Z,1016.16
2018-12-16T02:32:26.848Z,1016.14
2018-12-16T02:33:27.037Z,1016.15
2018-12-16T02:34:26.953Z,1016.15
2018-12-16T02:35:27.053Z,1016.14
2018-12-16T02:36:27.096Z,1016.13
2018-12-16T02:37:27.191Z,1016.11
2018-12-16T02:38:27.274Z,1016.08
2018-12-16T02:39:27.315Z,1016.06
2018-12-16T02:40:27.390Z,1016.00
2018-12-16T02:41:27.502Z,1016.08
2018-12-16T02:42:27.536Z,1016.05
2018-12-16T02:43:27.624Z,1016.04
2018-12-16T02:44:27.666Z,1016.06
2018-12-16T02:45:27.752Z,1016.09
2018-12-16T02:46:27.789Z,1016.05
2018-12-16T02:47:27.893Z,1016.12
2018-12-16T02:48:27.981Z,1016.02
2018-12-16T02:49:28.054Z,1016.07
2018-12-16T02:50:28.105Z,1016.06
2018-12-16T02:51:28.156Z,1016.03
2018-12-16T02:52:28.232Z,1016.04
2018-12-16T02:53:28.301Z,1016.02
2018-12-16T02:54:28.371Z,1016.08
2018-12-16T02:55:28.460Z,1016.05
2018-12-16T02:56:28.508Z,1016.04
2018-12-16T02:57:28.632Z,1016.04
2018-12-16T02:58:28.703Z,1016.07
2018-12-16T02:59:28.720Z,1016.00
2018-12-16T03:00:28.813Z,1016.06
2018-12-16T03:01:28.955Z,1016.00
2018-12-16T03:02:28.955Z,1015.93
2018-12-16T03:03:29.018Z,1015.89
2018-12-16T03:04:29.071Z,1015.93
2018-12-16T03:05:29.165Z,1015.92
2018-12-16T03:06:29.363Z,1015.95
2018-12-16T03:07:29.277Z,1015.92
2018-12-16T03:08:29.367Z,1015.90
2018-12-16T03:09:29.416Z,1015.85
2018-12-16T03:10:29.498Z,1015.85
2018-12-16T03:11:29.555Z,1015.82
2018-12-16T03:12:29.644Z,1015.81
2018-12-16T03:13:29.705Z,1015.79
2018-12-16T03:14:29.815Z,1015.80
2018-12-16T03:15:29.836Z,1015.83
2018-12-16T03:16:29.892Z,1015.81
2018-12-16T03:17:29.985Z,1015.80
2018-12-16T03:18:30.059Z,1015.61
2018-12-16T03:19:30.085Z,1015.66
2018-12-16T03:20:30.190Z,1015.66
2018-12-16T03:21:30.245Z,1015.68
2018-12-16T03:22:30.378Z,1015.66
2018-12-16T03:23:30.387Z,1015.70
2018-12-16T03:24:30.670Z,1015.67
2018-12-16T03:25:30.515Z,1015.65
2018-12-16T03:26:35.881Z,1015.68
2018-12-16T03:27:31.662Z,1015.60
2018-12-16T03:28:30.744Z,1015.61
2018-12-16T03:29:30.797Z,1015.58
2018-12-16T03:30:30.934Z,1015.58
2018-12-16T03:31:30.956Z,1015.58
2018-12-16T03:32:31.028Z,1015.56
2018-12-16T03:33:31.115Z,1015.58
2018-12-16T03:34:31.180Z,1015.59
2018-12-16T03:35:31.266Z,1015.56
2018-12-16T03:36:31.301Z,1015.59
2018-12-16T03:37:31.369Z,1015.53
2018-12-16T03:38:31.510Z,1015.52
2018-12-16T03:39:31.705Z,1015.52
2018-12-16T03:40:31.629Z,1015.51
2018-12-16T03:41:31.663Z,1015.47
2018-12-16T03:42:31.750Z,1015.50
2018-12-16T03:43:31.853Z,1015.52
2018-12-16T03:44:31.934Z,1015.45
2018-12-16T03:45:31.990Z,1015.41
2018-12-16T03:46:32.041Z,1015.44
2018-12-16T03:47:32.220Z,1015.40
2018-12-16T03:48:32.207Z,1015.41
2018-12-16T03:49:32.280Z,1015.41
2018-12-16T03:50:32.349Z,1015.43
2018-12-16T03:51:32.396Z,1015.43
2018-12-16T03:52:32.450Z,1015.40
2018-12-16T03:53:32.553Z,1015.40
2018-12-16T03:54:32.638Z,1015.40
2018-12-16T03:55:32.743Z,1015.38
2018-12-16T03:56:32.727Z,1015.42
2018-12-16T03:57:32.808Z,1015.40
2018-12-16T03:58:32.871Z,1015.40
2018-12-16T03:59:32.966Z,1015.35
2018-12-16T04:00:33.034Z,1015.39
2018-12-16T04:01:33.080Z,1015.37
2018-12-16T04:02:33.150Z,1015.37
2018-12-16T04:03:33.266Z,1015.38
2018-12-16T04:04:33.292Z,1015.33
2018-12-16T04:05:33.374Z,1015.40
2018-12-16T04:06:33.424Z,1015.39
2018-12-16T04:07:33.500Z,1015.38
2018-12-16T04:08:33.595Z,1015.35
2018-12-16T04:09:33.676Z,1015.35
2018-12-16T04:10:33.714Z,1015.33
2018-12-16T04:11:33.805Z,1015.30
2018-12-16T04:12:33.961Z,1015.29
2018-12-16T04:13:33.939Z,1015.26
2018-12-16T04:14:34.022Z,1015.22
2018-12-16T04:15:34.063Z,1015.19
2018-12-16T04:16:34.134Z,1015.20
2018-12-16T04:17:34.200Z,1015.20
2018-12-16T04:18:34.289Z,1015.19
2018-12-16T04:19:34.356Z,1015.16
2018-12-16T04:20:34.518Z,1015.10
2018-12-16T04:21:34.482Z,1015.11
2018-12-16T04:22:34.552Z,1015.10
2018-12-16T04:23:34.633Z,1015.10
2018-12-16T04:24:34.697Z,1015.10
2018-12-16T04:25:34.766Z,1015.09
2018-12-16T04:26:34.804Z,1015.03
2018-12-16T04:27:34.896Z,1015.03
2018-12-16T04:28:35.041Z,1014.96
2018-12-16T04:29:35.027Z,1014.96
2018-12-16T04:30:35.074Z,1014.91
2018-12-16T04:31:35.147Z,1014.90
2018-12-16T04:32:35.231Z,1014.83
2018-12-16T04:33:35.316Z,1014.82
2018-12-16T04:34:35.392Z,1014.84
2018-12-16T04:35:35.440Z,1014.80
2018-12-16T04:36:35.528Z,1014.80
2018-12-16T04:37:35.561Z,1014.81
2018-12-16T04:38:35.668Z,1014.81
2018-12-16T04:39:35.754Z,1014.75
2018-12-16T04:40:35.792Z,1014.75
2018-12-16T04:41:35.882Z,1014.76
2018-12-16T04:42:35.927Z,1014.80
2018-12-16T04:43:36.016Z,1014.66
2018-12-16T04:44:36.201Z,1014.71
2018-12-16T04:45:36.173Z,1014.72
2018-12-16T04:46:36.243Z,1014.71
2018-12-16T04:47:36.298Z,1014.68
2018-12-16T04:48:36.366Z,1014.65
2018-12-16T04:49:36.447Z,1014.67
2018-12-16T04:50:36.507Z,1014.66
2018-12-16T04:51:36.592Z,1014.67
2018-12-16T04:52:36.662Z,1014.63
2018-12-16T04:53:37.198Z,1014.57
2018-12-16T04:54:36.854Z,1014.56
2018-12-16T04:55:36.852Z,1014.59
2018-12-16T04:56:36.937Z,1014.57
2018-12-16T04:57:36.993Z,1014.56
2018-12-16T04:58:37.078Z,1014.51
2018-12-16T04:59:37.144Z,1014.52
2018-12-16T05:00:37.184Z,1014.50
2018-12-16T05:01:37.395Z,1014.53
2018-12-16T05:02:37.554Z,1014.53
2018-12-16T05:03:37.420Z,1014.53
2018-12-16T05:04:37.501Z,1014.49
2018-12-16T05:05:37.551Z,1014.51
2018-12-16T05:06:37.648Z,1014.53
2018-12-16T05:07:37.697Z,1014.54
2018-12-16T05:08:37.789Z,1014.51
2018-12-16T05:09:37.890Z,1014.54
2018-12-16T05:10:37.897Z,1014.48
2018-12-16T05:11:38.011Z,1014.49
2018-12-16T05:12:38.056Z,1014.45
2018-12-16T05:13:38.142Z,1014.43
2018-12-16T05:14:38.228Z,1014.43
2018-12-16T05:15:38.262Z,1014.42
2018-12-16T05:16:38.338Z,1014.38
2018-12-16T05:17:38.460Z,1014.36
2018-12-16T05:18:38.472Z,1014.32
2018-12-16T05:19:38.569Z,1014.35
2018-12-16T05:20:38.596Z,1014.30
2018-12-16T05:21:38.689Z,1014.28
2018-12-16T05:22:38.725Z,1014.27
2018-12-16T05:23:41.858Z,1014.22
2018-12-16T05:24:38.924Z,1014.16
2018-12-16T05:25:38.985Z,1014.21
2018-12-16T05:26:39.099Z,1014.17
2018-12-16T05:27:39.085Z,1014.07
2018-12-16T05:28:39.189Z,1014.05
2018-12-16T05:29:39.273Z,1014.01
2018-12-16T05:30:39.302Z,1014.02
2018-12-16T05:31:39.399Z,1013.97
2018-12-16T05:32:39.450Z,1014.04
2018-12-16T05:33:39.533Z,1013.93
2018-12-16T05:34:39.737Z,1014.02
2018-12-16T05:35:39.666Z,1013.95
2018-12-16T05:36:39.756Z,1013.96
2018-12-16T05:37:39.791Z,1013.93
2018-12-16T05:38:39.863Z,1013.94
2018-12-16T05:39:39.971Z,1013.91
2018-12-16T05:40:40.012Z,1013.92
2018-12-16T05:41:40.101Z,1013.92
2018-12-16T05:42:40.297Z,1013.87
2018-12-16T05:43:40.217Z,1013.90
2018-12-16T05:44:40.353Z,1013.82
2018-12-16T05:45:40.392Z,1013.84
2018-12-16T05:46:40.478Z,1013.87
2018-12-16T05:47:40.533Z,1013.81
2018-12-16T05:48:40.600Z,1013.78
2018-12-16T05:49:40.704Z,1013.73
2018-12-16T05:50:40.810Z,1013.76
2018-12-16T05:51:40.826Z,1013.74
2018-12-16T05:52:40.885Z,1013.75
2018-12-16T05:53:40.956Z,1013.74
2018-12-16T05:54:41.051Z,1013.76
2018-12-16T05:55:41.086Z,1013.73
2018-12-16T05:56:41.173Z,1013.75
2018-12-16T05:57:41.240Z,1013.73
2018-12-16T05:58:41.344Z,1013.84
2018-12-16T05:59:41.367Z,1013.74
2018-12-16T06:00:41.428Z,1013.69
2018-12-16T06:01:41.525Z,1013.71
2018-12-16T06:02:41.584Z,1013.70
2018-12-16T06:03:41.664Z,1013.71
2018-12-16T06:04:41.751Z,1013.72
2018-12-16T06:05:41.826Z,1013.68
2018-12-16T06:06:41.888Z,1013.73
2018-12-16T06:07:41.986Z,1013.69
2018-12-16T06:08:42.008Z,1013.69
2018-12-16T06:09:42.107Z,1013.66
2018-12-16T06:10:42.157Z,1013.66
2018-12-16T06:11:42.219Z,1013.65
2018-12-16T06:12:42.286Z,1013.63
2018-12-16T06:13:42.374Z,1013.65
2018-12-16T06:14:42.464Z,1013.63
2018-12-16T06:15:42.655Z,1013.60
2018-12-16T06:16:42.592Z,1013.58
2018-12-16T06:17:42.656Z,1013.57
2018-12-16T06:18:42.724Z,1013.55
2018-12-16T06:19:42.816Z,1013.61
2018-12-16T06:20:42.901Z,1013.58
2018-12-16T06:21:42.964Z,1013.52
2018-12-16T06:22:42.999Z,1013.53
2018-12-16T06:23:43.253Z,1013.53
2018-12-16T06:24:43.200Z,1013.56
2018-12-16T06:25:43.226Z,1013.52
2018-12-16T06:26:43.315Z,1013.51
2018-12-16T06:27:43.367Z,1013.45
2018-12-16T06:28:43.425Z,1013.42
2018-12-16T06:29:43.551Z,1013.45
2018-12-16T06:30:43.580Z,1013.40
2018-12-16T06:31:43.694Z,1013.38
2018-12-16T06:32:43.698Z,1013.39
2018-12-16T06:33:43.760Z,1013.43
2018-12-16T06:34:43.881Z,1013.45
2018-12-16T06:35:43.915Z,1013.41
2018-12-16T06:36:43.998Z,1013.45
2018-12-16T06:37:44.049Z,1013.44
2018-12-16T06:38:48.459Z,1013.46
2018-12-16T06:39:44.268Z,1013.46
2018-12-16T06:40:44.239Z,1013.38
2018-12-16T06:41:44.577Z,1013.38
2018-12-16T06:42:44.407Z,1013.40
2018-12-16T06:43:44.478Z,1013.39
2018-12-16T06:44:44.654Z,1013.35
2018-12-16T06:45:44.614Z,1013.35
2018-12-16T06:46:44.686Z,1013.36
2018-12-16T06:47:44.821Z,1013.40
2018-12-16T06:48:44.921Z,1013.36
2018-12-16T06:49:44.937Z,1013.31
2018-12-16T06:50:45.012Z,1013.28
2018-12-16T06:51:45.036Z,1013.29
2018-12-16T06:52:45.120Z,1013.22
2018-12-16T06:53:45.193Z,1013.18
2018-12-16T06:54:45.304Z,1013.21
2018-12-16T06:55:45.329Z,1013.18
2018-12-16T06:56:45.563Z,1013.16
2018-12-16T06:57:45.513Z,1013.16
2018-12-16T06:58:45.581Z,1013.16
2018-12-16T06:59:45.701Z,1013.07
2018-12-16T07:00:45.734Z,1013.05
2018-12-16T07:01:45.803Z,1013.08
2018-12-16T07:02:45.871Z,1013.01
2018-12-16T07:03:45.959Z,1013.06
2018-12-16T07:04:46.172Z,1012.99
2018-12-16T07:05:46.096Z,1012.95
2018-12-16T07:06:46.159Z,1013.01
2018-12-16T07:07:46.232Z,1012.98
2018-12-16T07:08:46.388Z,1012.99
2018-12-16T07:09:46.402Z,1012.93
2018-12-16T07:10:46.485Z,1012.97
2018-12-16T07:11:46.528Z,1013.00
2018-12-16T07:12:46.639Z,1012.94
2018-12-16T07:13:46.632Z,1012.98
2018-12-16T07:14:46.763Z,1012.97
2018-12-16T07:15:46.813Z,1013.07
2018-12-16T07:16:46.860Z,1013.03
2018-12-16T07:17:46.953Z,1013.08
2018-12-16T07:18:47.010Z,1013.12
2018-12-16T07:19:47.097Z,1013.10
2018-12-16T07:20:47.226Z,1013.18
2018-12-16T07:21:47.253Z,1013.23
2018-12-16T07:22:47.312Z,1013.25
2018-12-16T07:23:47.368Z,1013.30
2018-12-16T07:24:47.435Z,1013.39
2018-12-16T07:25:47.498Z,1013.41
2018-12-16T07:26:48.047Z,1013.41
2018-12-16T07:27:47.662Z,1013.47
2018-12-16T07:28:47.723Z,1013.42
2018-12-16T07:29:47.936Z,1013.48
2018-12-16T07:30:47.921Z,1013.39
2018-12-16T07:31:47.946Z,1013.42
2018-12-16T07:32:48.027Z,1013.32
2018-12-16T07:33:48.080Z,1013.31
2018-12-16T07:34:48.176Z,1013.33
2018-12-16T07:35:48.205Z,1013.30
2018-12-16T07:36:48.279Z,1013.27
2018-12-16T07:37:48.516Z,1013.31
2018-12-16T07:38:48.433Z,1013.30
2018-12-16T07:39:48.531Z,1013.32
2018-12-16T07:40:48.639Z,1013.23
2018-12-16T07:41:48.683Z,1013.26
2018-12-16T07:42:48.725Z,1013.32
2018-12-16T07:43:48.791Z,1013.29
2018-12-16T07:44:48.907Z,1013.29
2018-12-16T07:45:48.997Z,1013.34
2018-12-16T07:46:48.966Z,1013.31
2018-12-16T07:47:49.084Z,1013.27
2018-12-16T07:48:49.121Z,1013.33
2018-12-16T07:49:49.207Z,1013.25
2018-12-16T07:50:49.260Z,1013.27
2018-12-16T07:51:49.359Z,1013.28
2018-12-16T07:52:49.454Z,1013.29
2018-12-16T07:53:49.611Z,1013.31
2018-12-16T07:54:49.552Z,1013.31
2018-12-16T07:55:49.642Z,1013.28
2018-12-16T07:56:49.687Z,1013.26
2018-12-16T07:57:49.782Z,1013.26
2018-12-16T07:58:49.817Z,1013.22
2018-12-16T07:59:49.904Z,1013.23
2018-12-16T08:00:50.015Z,1013.23
2018-12-16T08:01:50.080Z,1013.21
2018-12-16T08:02:50.435Z,1013.21
2018-12-16T08:03:50.152Z,1013.14
2018-12-16T08:04:50.288Z,1013.17
2018-12-16T08:05:50.323Z,1013.13
2018-12-16T08:06:50.404Z,1013.13
2018-12-16T08:07:50.467Z,1013.07
2018-12-16T08:08:50.516Z,1013.03
2018-12-16T08:09:50.580Z,1013.00
2018-12-16T08:10:50.747Z,1013.04
2018-12-16T08:11:50.737Z,1013.04
2018-12-16T08:12:50.812Z,1013.00
2018-12-16T08:13:50.849Z,1013.04
2018-12-16T08:14:50.919Z,1012.99
2018-12-16T08:15:51.028Z,1013.02
2018-12-16T08:16:52.041Z,1013.01
2018-12-16T08:17:51.654Z,1013.07
2018-12-16T08:18:51.365Z,1013.07
2018-12-16T08:19:51.308Z,1013.10
2018-12-16T08:20:51.417Z,1013.10
2018-12-16T08:21:51.777Z,1013.03
2018-12-16T08:22:51.751Z,1013.02
2018-12-16T08:23:51.649Z,1013.04
2018-12-16T08:24:51.880Z,1012.98
2018-12-16T08:25:51.748Z,1012.96
2018-12-16T08:26:51.822Z,1012.95
2018-12-16T08:27:51.951Z,1012.91
2018-12-16T08:28:51.944Z,1012.90
2018-12-16T08:29:52.296Z,1012.84
2018-12-16T08:30:53.259Z,1012.91
2018-12-16T08:31:52.303Z,1012.92
2018-12-16T08:32:52.341Z,1012.88
2018-12-16T08:33:53.235Z,1012.96
2018-12-16T08:34:53.145Z,1012.96
2018-12-16T08:35:52.474Z,1012.92
2018-12-16T08:36:52.474Z,1012.93
2018-12-16T08:37:52.552Z,1012.98
2018-12-16T08:38:52.619Z,1012.92
2018-12-16T08:39:52.690Z,1012.94
2018-12-16T08:40:52.769Z,1012.96
2018-12-16T08:41:52.840Z,1012.94
2018-12-16T08:42:52.932Z,1012.98
2018-12-16T08:43:53.069Z,1013.09
2018-12-16T08:44:53.042Z,1013.02
2018-12-16T08:45:53.126Z,1013.00
2018-12-16T08:46:53.189Z,1013.03
2018-12-16T08:47:53.265Z,1013.01
2018-12-16T08:48:53.300Z,1013.04
2018-12-16T08:49:53.387Z,1013.03
2018-12-16T08:50:53.469Z,1012.94
2018-12-16T08:51:53.618Z,1012.98
2018-12-16T08:52:53.595Z,1012.88
2018-12-16T08:53:53.667Z,1012.91
2018-12-16T08:54:53.755Z,1013.02
2018-12-16T08:55:53.845Z,1012.91
2018-12-16T08:56:53.923Z,1013.03
2018-12-16T08:57:53.998Z,1013.01
2018-12-16T08:58:54.036Z,1013.05
2018-12-16T08:59:54.186Z,1013.00
2018-12-16T09:00:54.183Z,1013.07
2018-12-16T09:01:54.263Z,1012.94
2018-12-16T09:02:54.318Z,1013.00
2018-12-16T09:03:54.370Z,1012.97
2018-12-16T09:04:54.426Z,1012.91
2018-12-16T09:05:54.526Z,1012.87
2018-12-16T09:06:54.612Z,1012.88
2018-12-16T09:07:54.739Z,1012.85
2018-12-16T09:08:54.726Z,1012.86
2018-12-16T09:09:54.794Z,1012.86
2018-12-16T09:10:54.867Z,1012.86
2018-12-16T09:11:54.966Z,1012.88
2018-12-16T09:12:55.031Z,1012.79
2018-12-16T09:13:55.101Z,1012.79
2018-12-16T09:14:55.166Z,1012.78
2018-12-16T09:15:55.281Z,1012.79
2018-12-16T09:16:55.703Z,1012.76
2018-12-16T09:17:55.378Z,1012.76
2018-12-16T09:18:55.473Z,1012.76
2018-12-16T09:19:55.536Z,1012.74
2018-12-16T09:20:55.622Z,1012.71
2018-12-16T09:21:55.662Z,1012.67
2018-12-16T09:22:55.883Z,1012.67
2018-12-16T09:23:55.858Z,1012.67
2018-12-16T09:24:56.028Z,1012.66
2018-12-16T09:25:56.030Z,1012.58
2018-12-16T09:26:56.038Z,1012.57
2018-12-16T09:27:56.122Z,1012.55
2018-12-16T09:28:56.207Z,1012.59
2018-12-16T09:29:56.260Z,1012.52
2018-12-16T09:30:58.113Z,1012.54
2018-12-16T09:31:56.402Z,1012.56
2018-12-16T09:32:56.567Z,1012.55
2018-12-16T09:33:56.549Z,1012.49
2018-12-16T09:34:56.596Z,1012.42
2018-12-16T09:35:56.692Z,1012.47
2018-12-16T09:36:56.736Z,1012.43
2018-12-16T09:37:56.805Z,1012.48
2018-12-16T09:38:56.897Z,1012.43
2018-12-16T09:39:56.947Z,1012.44
2018-12-16T09:40:57.102Z,1012.42
2018-12-16T09:41:57.066Z,1012.40
2018-12-16T09:42:57.175Z,1012.35
2018-12-16T09:43:57.215Z,1012.34
2018-12-16T09:44:57.287Z,1012.36
2018-12-16T09:45:57.419Z,1012.39
2018-12-16T09:46:57.438Z,1012.28
2018-12-16T09:47:57.500Z,1012.27
2018-12-16T09:48:57.637Z,1012.29
2018-12-16T09:49:57.606Z,1012.26
2018-12-16T09:50:57.721Z,1012.24
2018-12-16T09:51:57.780Z,1012.20
2018-12-16T09:52:57.857Z,1012.18
2018-12-16T09:53:57.937Z,1012.17
2018-12-16T09:54:57.991Z,1012.14
2018-12-16T09:55:58.284Z,1012.12
2018-12-16T09:56:58.128Z,1012.17
2018-12-16T09:57:58.460Z,1012.07
2018-12-16T09:58:58.283Z,1012.10
2018-12-16T09:59:58.359Z,1012.08
2018-12-16T10:00:58.406Z,1012.03
2018-12-16T10:01:58.472Z,1012.07
2018-12-16T10:02:58.573Z,1011.97
2018-12-16T10:03:58.656Z,1011.98
2018-12-16T10:04:58.709Z,1012.03
2018-12-16T10:05:58.864Z,1012.01
2018-12-16T10:06:58.829Z,1011.98
2018-12-16T10:07:58.914Z,1011.99
2018-12-16T10:08:58.997Z,1011.98
2018-12-16T10:09:59.042Z,1011.98
2018-12-16T10:10:59.134Z,1011.96
2018-12-16T10:11:59.174Z,1012.01
2018-12-16T10:12:59.250Z,1011.97
2018-12-16T10:13:59.476Z,1012.01
2018-12-16T10:14:59.389Z,1011.94
2018-12-16T10:15:59.487Z,1011.90
2018-12-16T10:16:59.524Z,1011.85
2018-12-16T10:17:59.592Z,1011.89
2018-12-16T10:18:59.700Z,1011.89
2018-12-16T10:19:59.750Z,1011.88
2018-12-16T10:20:59.826Z,1011.97
2018-12-16T10:21:59.920Z,1011.89
2018-12-16T10:22:59.914Z,1011.83
2018-12-16T10:24:00.043Z,1011.89
2018-12-16T10:25:00.102Z,1011.91
2018-12-16T10:26:00.170Z,1011.87
2018-12-16T10:27:00.252Z,1011.87
2018-12-16T10:28:00.323Z,1011.81
2018-12-16T10:29:00.413Z,1011.85
2018-12-16T10:30:00.482Z,1011.89
2018-12-16T10:31:00.537Z,1011.81
2018-12-16T10:32:00.617Z,1011.84
2018-12-16T10:33:00.691Z,1011.87
2018-12-16T10:34:00.786Z,1011.89
2018-12-16T10:35:00.818Z,1011.83
2018-12-16T10:36:00.900Z,1011.77
2018-12-16T10:37:00.991Z,1011.82
2018-12-16T10:38:01.056Z,1011.80
2018-12-16T10:39:01.920Z,1011.73
2018-12-16T10:40:01.162Z,1011.73
2018-12-16T10:41:01.251Z,1011.63
2018-12-16T10:42:01.339Z,1011.67
2018-12-16T10:43:01.385Z,1011.66
2018-12-16T10:44:01.480Z,1011.68
2018-12-16T10:45:01.524Z,1011.62
2018-12-16T10:46:01.572Z,1011.55
2018-12-16T10:47:01.780Z,1011.55
2018-12-16T10:48:01.722Z,1011.53
2018-12-16T10:49:04.793Z,1011.58
2018-12-16T10:50:01.872Z,1011.58
2018-12-16T10:51:01.928Z,1011.57
2018-12-16T10:52:02.020Z,1011.53
2018-12-16T10:53:02.081Z,1011.50
2018-12-16T10:54:02.169Z,1011.52
2018-12-16T10:55:02.280Z,1011.48
2018-12-16T10:56:02.260Z,1011.49
2018-12-16T10:57:02.365Z,1011.49
2018-12-16T10:58:02.417Z,1011.42
2018-12-16T10:59:02.515Z,1011.41
2018-12-16T11:00:02.559Z,1011.43
2018-12-16T11:01:02.630Z,1011.35
2018-12-16T11:02:02.697Z,1011.35
2018-12-16T11:03:02.789Z,1011.34
2018-12-16T11:04:02.844Z,1011.35
2018-12-16T11:05:02.888Z,1011.31
2018-12-16T11:06:02.957Z,1011.33
2018-12-16T11:07:03.047Z,1011.29
2018-12-16T11:08:03.090Z,1011.26
2018-12-16T11:09:03.224Z,1011.25
2018-12-16T11:10:03.260Z,1011.21
2018-12-16T11:11:03.356Z,1011.21
2018-12-16T11:12:03.482Z,1011.26
2018-12-16T11:13:03.456Z,1011.26
2018-12-16T11:14:03.604Z,1011.19
2018-12-16T11:15:03.615Z,1011.15
2018-12-16T11:16:03.686Z,1011.14
2018-12-16T11:17:03.782Z,1011.14
2018-12-16T11:18:03.831Z,1011.15
2018-12-16T11:19:03.946Z,1011.19
2018-12-16T11:20:04.081Z,1011.14
2018-12-16T11:21:04.056Z,1011.13
2018-12-16T11:22:04.142Z,1011.13
2018-12-16T11:23:04.198Z,1011.19
2018-12-16T11:24:04.241Z,1011.15
2018-12-16T11:25:05.807Z,1011.12
2018-12-16T11:26:04.396Z,1011.14
2018-12-16T11:27:04.488Z,1011.13
2018-12-16T11:28:04.659Z,1011.08
2018-12-16T11:29:04.586Z,1011.05
2018-12-16T11:30:04.701Z,1011.06
2018-12-16T11:31:04.778Z,1011.03
2018-12-16T11:32:04.864Z,1011.05
2018-12-16T11:33:04.915Z,1010.99
2018-12-16T11:34:04.986Z,1010.98
2018-12-16T11:35:05.303Z,1010.94
2018-12-16T11:36:05.373Z,1010.97
2018-12-16T11:37:05.432Z,1010.98
2018-12-16T11:38:05.490Z,1010.96
2018-12-16T11:39:05.562Z,1010.95
2018-12-16T11:40:05.681Z,1010.95
2018-12-16T11:41:05.709Z,1010.95
2018-12-16T11:42:05.771Z,1010.90
2018-12-16T11:43:05.834Z,1010.93
2018-12-16T11:44:05.973Z,1010.89
2018-12-16T11:45:06.016Z,1010.94
2018-12-16T11:46:06.035Z,1010.93
2018-12-16T11:47:06.114Z,1010.86
2018-12-16T11:48:06.179Z,1010.89
2018-12-16T11:49:06.265Z,1010.87
2018-12-16T11:50:06.385Z,1010.83
2018-12-16T11:51:06.402Z,1010.92
2018-12-16T11:52:06.533Z,1010.83
2018-12-16T11:53:06.615Z,1010.85
2018-12-16T11:54:06.617Z,1010.71
2018-12-16T11:55:12.522Z,1010.83
2018-12-16T11:56:07.808Z,1010.80
2018-12-16T11:57:06.853Z,1010.81
2018-12-16T11:58:06.892Z,1010.78
2018-12-16T11:59:07.009Z,1010.77
2018-12-16T12:00:07.151Z,1010.67
2018-12-16T12:01:07.218Z,1010.69
2018-12-16T12:02:07.184Z,1010.66
2018-12-16T12:03:07.222Z,1010.65
2018-12-16T12:04:07.306Z,1010.61
2018-12-16T12:05:07.442Z,1010.58
2018-12-16T12:06:07.472Z,1010.59